Flight Track Log - Related Links

Times and Time Zones

All times are in EDT time to prevent confusion due to time zone crossing. See the EGF4010 flight status page for this flight to view local times or setup timezone preferences in your user account.

Time Position Orientation Groundspeed Altitude Reporting Facility
EDT Latitude Longitude Course Direction KTS MPH feet Rate Location/Type
Tue 07:24:29 PM 46.8897 -96.8150 122° Southeast 175 201 2,600  Level Minneapolis Center
Tue 07:25:31 PM 46.8300 -96.8083 176° South 201 231 5,700 2,903 Climbing Minneapolis Center
Tue 07:26:00 PM 46.6910 -96.7302 123° Southeast  Level FlightAware Approximate
Tue 07:26:33 PM 46.7608 -96.7775 163° South 270 311 8,600  Level Minneapolis Center
Tue 07:27:00 PM 46.6309 -96.5979 123° Southeast  Level FlightAware Approximate
Tue 07:27:35 PM 46.7111 -96.6772 126° Southeast 292 336 11,400  Level Minneapolis Center
Tue 07:28:00 PM 46.5736 -96.4632 121° Southeast  Level FlightAware Approximate
Tue 07:28:37 PM 46.6617 -96.5728 125° Southeast 322 371 13,400  Level Minneapolis Center
Tue 07:29:00 PM 46.5166 -96.3283 122° Southeast  Level FlightAware Approximate
Tue 07:29:38 PM 46.6075 -96.4581 124° Southeast 352 405 14,800  Level Minneapolis Center
Tue 07:30:40 PM 46.5394 -96.3122 124° Southeast 390 449 16,100 1,403 Climbing Minneapolis Center
Tue 07:31:42 PM 46.4742 -96.1722 124° Southeast 402 463 17,700 1,742 Climbing Minneapolis Center
Tue 07:32:44 PM 46.4125 -96.0347 123° Southeast 393 452 19,700 1,742 Climbing Minneapolis Center
Tue 07:33:46 PM 46.3494 -95.8997 124° Southeast 400 460 21,300 1,500 Climbing Minneapolis Center
Tue 07:34:48 PM 46.2858 -95.7656 124° Southeast 408 470 22,800 1,403 Climbing Minneapolis Center
Tue 07:35:50 PM 46.2139 -95.6308 128° Southeast 419 482 24,200 1,403 Climbing Minneapolis Center
Tue 07:36:52 PM 46.1458 -95.4917 125° Southeast 423 487 25,700 1,355 Climbing Minneapolis Center
Tue 07:37:54 PM 46.0814 -95.3469 123° Southeast 427 491 27,000 1,171 Climbing Minneapolis Center
Tue 07:38:55 PM 46.0014 -95.1742 124° Southeast 431 496 28,100 1,024 Climbing Minneapolis Center
Tue 07:39:57 PM 45.9375 -95.0350 123° Southeast 437 503 29,100 919 Climbing Minneapolis Center
Tue 07:40:59 PM 45.8689 -94.8881 124° Southeast 442 509 30,000 823 Climbing Minneapolis Center
Tue 07:42:01 PM 45.8136 -94.7686 124° Southeast 448 516 30,800 878 Climbing Minneapolis Center
Tue 07:43:02 PM 45.7431 -94.6164 124° Southeast 458 527 31,800 1,403 Climbing Minneapolis Center
Tue 07:44:05 PM 45.6414 -94.4017 124° Southeast 466 536 33,700 1,500 Climbing Minneapolis Center
Tue 07:45:06 PM 45.5689 -94.2497 124° Southeast 466 536 34,900 1,268 Climbing Minneapolis Center
Tue 07:46:08 PM 45.4981 -94.0983 124° Southeast 461 531 36,300 1,016 Climbing Minneapolis Center
Tue 07:47:10 PM 45.4258 -93.9481 124° Southeast 463 533 37,000 339 Climbing Minneapolis Center
Tue 07:48:12 PM 45.3506 -93.7958 125° Southeast 470 541 37,000  Level Minneapolis Center
Tue 07:49:14 PM 45.2756 -93.6403 124° Southeast 476 548 37,000  Level Minneapolis Center
Tue 07:50:16 PM 45.1864 -93.4578 125° Southeast 471 542 37,000  Level Minneapolis Center
Tue 07:51:17 PM 45.1156 -93.3036 123° Southeast 467 537 37,000  Level Minneapolis Center
Tue 07:52:19 PM 45.0483 -93.1431 121° Southeast 470 541 37,000  Level Minneapolis Center
Tue 07:53:21 PM 44.9817 -92.9836 121° Southeast 468 539 37,000  Level Minneapolis Center
Tue 07:54:35 PM 44.9147 -92.8250 121° Southeast 466 536 37,000  Level Minneapolis Center
Tue 07:55:37 PM 44.8347 -92.6344 121° Southeast 468 539 37,000  Level Minneapolis Center
Tue 07:56:39 PM 44.7672 -92.4767 121° Southeast 468 539 37,000  Level Minneapolis Center
Tue 07:57:41 PM 44.6983 -92.3183 121° Southeast 472 543 37,000  Level Minneapolis Center
Tue 07:58:43 PM 44.6164 -92.1294 121° Southeast 472 543 37,000  Level Minneapolis Center
Tue 07:59:45 PM 44.5494 -91.9717 121° Southeast 472 543 37,000  Level Minneapolis Center
Tue 08:00:47 PM 44.4794 -91.8131 122° Southeast 476 548 37,000  Level Minneapolis Center
Tue 08:01:55 PM 44.3983 -91.6275 121° Southeast 470 541 37,000  Level Minneapolis Center
Tue 08:02:57 PM 44.3292 -91.4728 122° Southeast 470 541 37,000 -242 Level Minneapolis Center
Tue 08:03:59 PM 44.2611 -91.3189 122° Southeast 468 539 36,500 -726 Descending Minneapolis Center
Tue 08:05:01 PM 44.1914 -91.1642 122° Southeast 469 540 35,500 -927 Descending Minneapolis Center
Tue 08:06:02 PM 44.1208 -91.0067 122° Southeast 473 544 34,600 -927 Descending Minneapolis Center
Tue 08:07:04 PM 44.0522 -90.8536 122° Southeast 473 544 33,600 -919 Descending Minneapolis Center
Tue 08:08:06 PM 43.9847 -90.7033 122° Southeast 465 535 32,700 -1,016 Descending Minneapolis Center
Tue 08:09:08 PM 43.8983 -90.5142 122° Southeast 477 549 31,500 -919 Descending Minneapolis Center
Tue 08:10:10 PM 43.8269 -90.3592 123° Southeast 478 550 30,800 -780 Descending Minneapolis Center
Tue 08:11:11 PM 43.7553 -90.2042 123° Southeast 479 551 29,900 -927 Descending Minneapolis Center
Tue 08:12:13 PM 43.6822 -90.0464 123° Southeast 486 559 28,900 -1,161 Descending Minneapolis Center
Tue 08:13:15 PM 43.6108 -89.8928 123° Southeast 478 550 27,500 -1,785 Descending Minneapolis Center
Tue 08:14:14 PM 43.5336 -89.7503 127° Southeast 468 539 25,300 -2,132 Descending Chicago Center
Tue 08:15:16 PM 43.4381 -89.6439 141° Southeast 444 511 23,200 -2,146 Descending Chicago Center
Tue 08:16:17 PM 43.3283 -89.5333 144° Southeast 424 488 20,900 -2,098 Descending Chicago Center
Tue 08:17:19 PM 43.2392 -89.4392 142° Southeast 411 473 18,900 -1,887 Descending Chicago Center
Tue 08:18:21 PM 43.1517 -89.3492 143° Southeast 398 458 17,000 -1,887 Descending Chicago Center
Tue 08:19:23 PM 43.0672 -89.2553 141° Southeast 393 452 15,000 -1,694 Descending Chicago Center
Tue 08:20:25 PM 42.9889 -89.1689 141° Southeast 369 425 13,500 -927 Descending Chicago Center
Tue 08:21:26 PM 42.8961 -89.0681 141° Southeast 366 421 13,100 -537 Descending Chicago Center
Tue 08:22:28 PM 42.8183 -88.9806 140° Southeast 365 420 12,400 -919 Descending Chicago Center
Tue 08:23:30 PM 42.7403 -88.8947 141° Southeast 362 417 11,200 -1,016 Descending Chicago Center
Tue 08:24:32 PM 42.6644 -88.8142 142° Southeast 348 400 10,300 -532 Descending Chicago Center
Tue 08:25:34 PM 42.5869 -88.7314 142° Southeast 355 409 10,100 -97 Descending Chicago Center
Tue 08:26:36 PM 42.5119 -88.6497 141° Southeast 347 399 10,100  Level Chicago Center
Tue 08:27:38 PM 42.4217 -88.5514 141° Southeast 356 410 10,100 -49 Level Chicago Center
Tue 08:28:39 PM 42.3569 -88.4500 131° Southeast 364 419 10,000 -49 Descending Chicago Center
Tue 08:29:41 PM 42.3131 -88.3386 118° Southeast 349 402 10,000 -387 Level Chicago Center
Tue 08:30:43 PM 42.2614 -88.2592 131° Southeast 290 334 9,200 -871 Descending Chicago Center
Tue 08:31:45 PM 42.2108 -88.1739 129° Southeast 290 334 8,200 -1,016 Descending Chicago Center
Tue 08:32:47 PM 42.1458 -88.0889 136° Southeast 267 307 7,100 -581 Descending Chicago Center
Tue 08:33:49 PM 42.0925 -88.0164 135° Southeast 276 318 7,000 -51 Descending Chicago Center
Tue 08:34:45 PM 42.0833 -87.9167 97° East 294 338 7,000 -295 Level Chicago TRACON
Tue 08:35:51 PM 42.0667 -87.8000 101° East 284 327 6,400 -1,095 Descending Chicago TRACON
Tue 08:36:51 PM 42.0667 -87.7000 90° East 268 308 4,700 -1,252 Descending Chicago TRACON
Tue 08:37:46 PM 42.0667 -87.6000 90° East 278 320 4,000 -365 Descending Chicago TRACON
Tue 08:38:46 PM 42.0500 -87.5167 105° East 253 291 4,000  Level Chicago TRACON
Tue 08:39:46 PM 41.9833 -87.5167 180° South 210 242 4,000  Level Chicago TRACON
Tue 08:40:46 PM 41.9833 -87.5833 270° West 160 184 4,000  Level Chicago TRACON
Tue 08:41:52 PM 41.9833 -87.6333 270° West 160 184 4,000  Level Chicago TRACON

Login

Don't have an account? Register now (free) for customized features, flight alerts, and more!